In Rescue
 
Open Full Screen Window  High Contrast Mode
Wind Gusting 14 knots
10
February 25, 2021 4:17 PM EST
Weather Information
Wind Direction
  230 °
Wind Speed
  10 kt (12 mph)
Wind Gust
  14 kt (16 mph)
Altimeter
30.26 in
Visibility
10 SM
Temperature
04° C
39° F
Dewpoint
-03° C
27° F
Humidity
61%
1hr Rain Fall
00.00 in.
24hr Rain Fall
00.00 in.
Sky Condition
Overcast @ 4,600 ft
Broken @ 3,600 ft
Scattered @ 2,900 ft
VFR

METAR KTTF 252117Z AUTO 23010G14KT 10SM SCT029 BKN036 OVC046 04/M03 A3026 RMK AO2 T00401026

FAA Disclaimer: The data displayed is for advisory purposes only and is not to be used for flight planning or operations.